Terminal Aerodrome Forecast
Issued by NWS

Home | Current Version | Previous Version | Text Only | Print | Product List | Glossary On
Versions: 1 2 3 4 5 6 7 8 9 10 11 12 13 14 15 16 17 18 19 20 21 22 23 24
000
FTUS46 KOTX 140539
TAFSFF
TAF
KSFF 140539Z 1406/1506 VRB02KT P6SM SCT100 OVC200
     FM141400 VRB03KT P6SM VCTS SCT100CB OVC140
     FM141800 06006G12KT P6SM VCTS SCT090CB BKN130 PROB30 1418/1424
      P6SM TS BKN070CB
     FM150200 02004KT P6SM SCT100 BKN200=

USA.gov is the U.S. government's official web portal to all federal, state and local government web resources and services.